sensor_id;sensor_type;location;lat;lon;timestamp;temperature;humidity
16955;DHT22;8594;52.052;8.354;2023-05-07T00:00:41;14.90;99.90
16955;DHT22;8594;52.052;8.354;2023-05-07T00:03:07;15.00;99.90
16955;DHT22;8594;52.052;8.354;2023-05-07T00:05:34;14.80;99.90
16955;DHT22;8594;52.052;8.354;2023-05-07T00:08:01;14.80;99.90
16955;DHT22;8594;52.052;8.354;2023-05-07T00:10:29;14.80;99.90
16955;DHT22;8594;52.052;8.354;2023-05-07T00:12:56;14.80;99.90
16955;DHT22;8594;52.052;8.354;2023-05-07T00:15:23;14.70;99.90
16955;DHT22;8594;52.052;8.354;2023-05-07T00:17:50;14.60;99.90
16955;DHT22;8594;52.052;8.354;2023-05-07T00:20:16;14.60;99.90
16955;DHT22;8594;52.052;8.354;2023-05-07T00:22:43;14.60;99.90
16955;DHT22;8594;52.052;8.354;2023-05-07T00:25:10;14.50;99.90
16955;DHT22;8594;52.052;8.354;2023-05-07T00:27:38;14.60;99.90
16955;DHT22;8594;52.052;8.354;2023-05-07T00:30:06;14.60;99.90
16955;DHT22;8594;52.052;8.354;2023-05-07T00:32:33;14.50;99.90
16955;DHT22;8594;52.052;8.354;2023-05-07T00:35:00;14.50;99.90
16955;DHT22;8594;52.052;8.354;2023-05-07T00:37:27;14.50;99.90
16955;DHT22;8594;52.052;8.354;2023-05-07T00:39:54;14.50;99.90
16955;DHT22;8594;52.052;8.354;2023-05-07T00:42:20;14.60;99.90
16955;DHT22;8594;52.052;8.354;2023-05-07T00:44:49;14.70;99.90
16955;DHT22;8594;52.052;8.354;2023-05-07T00:47:16;14.50;99.90
16955;DHT22;8594;52.052;8.354;2023-05-07T00:49:44;14.60;99.90
16955;DHT22;8594;52.052;8.354;2023-05-07T00:52:13;14.60;99.90
16955;DHT22;8594;52.052;8.354;2023-05-07T00:54:42;14.70;99.90
16955;DHT22;8594;52.052;8.354;2023-05-07T00:57:10;14.70;99.90
16955;DHT22;8594;52.052;8.354;2023-05-07T00:59:37;14.50;99.90
16955;DHT22;8594;52.052;8.354;2023-05-07T01:02:07;14.60;99.90
16955;DHT22;8594;52.052;8.354;2023-05-07T01:04:34;14.70;99.90
16955;DHT22;8594;52.052;8.354;2023-05-07T01:07:01;14.60;99.90
16955;DHT22;8594;52.052;8.354;2023-05-07T01:09:28;14.50;99.90
16955;DHT22;8594;52.052;8.354;2023-05-07T01:11:56;14.50;99.90
16955;DHT22;8594;52.052;8.354;2023-05-07T01:14:24;14.50;99.90
16955;DHT22;8594;52.052;8.354;2023-05-07T01:16:52;14.50;99.90
16955;DHT22;8594;52.052;8.354;2023-05-07T01:19:20;14.40;99.90
16955;DHT22;8594;52.052;8.354;2023-05-07T01:21:48;14.40;99.90
16955;DHT22;8594;52.052;8.354;2023-05-07T01:24:16;14.40;99.90
16955;DHT22;8594;52.052;8.354;2023-05-07T01:26:44;14.40;99.90
16955;DHT22;8594;52.052;8.354;2023-05-07T01:29:11;14.40;99.90
16955;DHT22;8594;52.052;8.354;2023-05-07T01:31:38;14.20;99.90
16955;DHT22;8594;52.052;8.354;2023-05-07T01:34:08;14.30;99.90
16955;DHT22;8594;52.052;8.354;2023-05-07T01:36:38;14.30;99.90
16955;DHT22;8594;52.052;8.354;2023-05-07T01:39:07;14.30;99.90
16955;DHT22;8594;52.052;8.354;2023-05-07T01:41:36;14.20;99.90
16955;DHT22;8594;52.052;8.354;2023-05-07T01:44:04;14.30;99.90
16955;DHT22;8594;52.052;8.354;2023-05-07T01:46:32;14.10;99.90
16955;DHT22;8594;52.052;8.354;2023-05-07T01:49:00;14.00;99.90
16955;DHT22;8594;52.052;8.354;2023-05-07T01:51:27;13.90;99.90
16955;DHT22;8594;52.052;8.354;2023-05-07T01:53:54;13.90;99.90
16955;DHT22;8594;52.052;8.354;2023-05-07T01:56:21;14.00;99.90
16955;DHT22;8594;52.052;8.354;2023-05-07T01:58:50;14.00;99.90
16955;DHT22;8594;52.052;8.354;2023-05-07T02:01:17;13.90;99.90
16955;DHT22;8594;52.052;8.354;2023-05-07T02:03:44;13.80;99.90
16955;DHT22;8594;52.052;8.354;2023-05-07T02:06:11;13.80;99.90
16955;DHT22;8594;52.052;8.354;2023-05-07T02:08:38;13.80;99.90
16955;DHT22;8594;52.052;8.354;2023-05-07T02:11:04;13.80;99.90
16955;DHT22;8594;52.052;8.354;2023-05-07T02:13:32;13.80;99.90
16955;DHT22;8594;52.052;8.354;2023-05-07T02:16:01;13.90;99.90
16955;DHT22;8594;52.052;8.354;2023-05-07T02:18:28;14.00;99.90
16955;DHT22;8594;52.052;8.354;2023-05-07T02:20:55;14.00;99.90
16955;DHT22;8594;52.052;8.354;2023-05-07T02:23:22;14.00;99.90
16955;DHT22;8594;52.052;8.354;2023-05-07T02:25:49;14.00;99.90
16955;DHT22;8594;52.052;8.354;2023-05-07T02:28:17;14.00;99.90
16955;DHT22;8594;52.052;8.354;2023-05-07T02:30:44;14.00;99.90
16955;DHT22;8594;52.052;8.354;2023-05-07T02:33:12;13.90;99.90
16955;DHT22;8594;52.052;8.354;2023-05-07T02:35:39;13.90;99.90
16955;DHT22;8594;52.052;8.354;2023-05-07T02:38:06;13.90;99.90
16955;DHT22;8594;52.052;8.354;2023-05-07T02:40:35;13.80;99.90
16955;DHT22;8594;52.052;8.354;2023-05-07T02:43:04;13.60;99.90
16955;DHT22;8594;52.052;8.354;2023-05-07T02:45:31;13.60;99.90
16955;DHT22;8594;52.052;8.354;2023-05-07T02:47:58;13.60;99.90
16955;DHT22;8594;52.052;8.354;2023-05-07T02:50:26;13.60;99.90
16955;DHT22;8594;52.052;8.354;2023-05-07T02:52:53;13.60;99.90
16955;DHT22;8594;52.052;8.354;2023-05-07T02:55:20;13.60;99.90
16955;DHT22;8594;52.052;8.354;2023-05-07T02:57:47;13.70;99.90
16955;DHT22;8594;52.052;8.354;2023-05-07T03:00:16;13.70;99.90
16955;DHT22;8594;52.052;8.354;2023-05-07T03:02:44;13.80;99.90
16955;DHT22;8594;52.052;8.354;2023-05-07T03:05:10;13.90;99.90
16955;DHT22;8594;52.052;8.354;2023-05-07T03:07:39;13.90;99.90
16955;DHT22;8594;52.052;8.354;2023-05-07T03:10:06;13.90;99.90
16955;DHT22;8594;52.052;8.354;2023-05-07T03:12:34;13.90;99.90
16955;DHT22;8594;52.052;8.354;2023-05-07T03:15:01;13.80;99.90
16955;DHT22;8594;52.052;8.354;2023-05-07T03:17:28;13.70;99.90
16955;DHT22;8594;52.052;8.354;2023-05-07T03:19:54;13.60;99.90
16955;DHT22;8594;52.052;8.354;2023-05-07T03:22:21;13.50;99.90
16955;DHT22;8594;52.052;8.354;2023-05-07T03:24:49;13.50;99.90
16955;DHT22;8594;52.052;8.354;2023-05-07T03:27:16;13.50;99.90
16955;DHT22;8594;52.052;8.354;2023-05-07T03:29:43;13.50;99.90
16955;DHT22;8594;52.052;8.354;2023-05-07T03:32:10;13.50;99.90
16955;DHT22;8594;52.052;8.354;2023-05-07T03:34:36;13.50;99.90
16955;DHT22;8594;52.052;8.354;2023-05-07T03:37:03;13.50;99.90
16955;DHT22;8594;52.052;8.354;2023-05-07T03:39:30;13.50;99.90
16955;DHT22;8594;52.052;8.354;2023-05-07T03:41:58;13.30;99.90
16955;DHT22;8594;52.052;8.354;2023-05-07T03:44:26;13.20;99.90
16955;DHT22;8594;52.052;8.354;2023-05-07T03:46:52;13.30;99.90
16955;DHT22;8594;52.052;8.354;2023-05-07T03:49:19;13.20;99.90
16955;DHT22;8594;52.052;8.354;2023-05-07T03:51:46;13.10;99.90
16955;DHT22;8594;52.052;8.354;2023-05-07T03:54:13;13.20;99.90
16955;DHT22;8594;52.052;8.354;2023-05-07T03:56:39;13.30;99.90
16955;DHT22;8594;52.052;8.354;2023-05-07T03:59:08;13.30;99.90
16955;DHT22;8594;52.052;8.354;2023-05-07T04:01:34;13.30;99.90
16955;DHT22;8594;52.052;8.354;2023-05-07T04:04:01;13.30;99.90
16955;DHT22;8594;52.052;8.354;2023-05-07T04:06:28;13.40;99.90
16955;DHT22;8594;52.052;8.354;2023-05-07T04:08:55;13.40;99.90
16955;DHT22;8594;52.052;8.354;2023-05-07T04:11:22;13.20;99.90
16955;DHT22;8594;52.052;8.354;2023-05-07T04:13:49;13.20;99.90
16955;DHT22;8594;52.052;8.354;2023-05-07T04:16:17;13.30;99.90
16955;DHT22;8594;52.052;8.354;2023-05-07T04:18:43;13.20;99.90
16955;DHT22;8594;52.052;8.354;2023-05-07T04:21:14;13.10;99.90
16955;DHT22;8594;52.052;8.354;2023-05-07T04:23:42;13.10;99.90
16955;DHT22;8594;52.052;8.354;2023-05-07T04:26:09;13.20;99.90
16955;DHT22;8594;52.052;8.354;2023-05-07T04:28:36;13.10;99.90
16955;DHT22;8594;52.052;8.354;2023-05-07T04:31:03;13.10;99.90
16955;DHT22;8594;52.052;8.354;2023-05-07T04:33:31;13.20;99.90
16955;DHT22;8594;52.052;8.354;2023-05-07T04:36:00;13.10;99.90
16955;DHT22;8594;52.052;8.354;2023-05-07T04:38:29;13.20;99.90
16955;DHT22;8594;52.052;8.354;2023-05-07T04:40:56;13.10;99.90
16955;DHT22;8594;52.052;8.354;2023-05-07T04:43:23;13.10;99.90
16955;DHT22;8594;52.052;8.354;2023-05-07T04:45:50;13.10;99.90
16955;DHT22;8594;52.052;8.354;2023-05-07T04:48:17;13.00;99.90
16955;DHT22;8594;52.052;8.354;2023-05-07T04:50:48;13.00;99.90
16955;DHT22;8594;52.052;8.354;2023-05-07T04:53:16;13.00;99.90
16955;DHT22;8594;52.052;8.354;2023-05-07T04:55:43;12.90;99.90
16955;DHT22;8594;52.052;8.354;2023-05-07T04:58:10;13.00;99.90
16955;DHT22;8594;52.052;8.354;2023-05-07T05:00:38;13.10;99.90
16955;DHT22;8594;52.052;8.354;2023-05-07T05:03:05;13.00;99.90
16955;DHT22;8594;52.052;8.354;2023-05-07T05:05:33;13.00;99.90
16955;DHT22;8594;52.052;8.354;2023-05-07T05:08:01;13.00;99.90
16955;DHT22;8594;52.052;8.354;2023-05-07T05:10:28;12.90;99.90
16955;DHT22;8594;52.052;8.354;2023-05-07T05:12:54;13.00;99.90
16955;DHT22;8594;52.052;8.354;2023-05-07T05:15:21;13.20;99.90
16955;DHT22;8594;52.052;8.354;2023-05-07T05:17:48;13.30;99.90
16955;DHT22;8594;52.052;8.354;2023-05-07T05:20:15;13.20;99.90
16955;DHT22;8594;52.052;8.354;2023-05-07T05:22:42;13.20;99.90
16955;DHT22;8594;52.052;8.354;2023-05-07T05:25:10;13.10;99.90
16955;DHT22;8594;52.052;8.354;2023-05-07T05:27:37;13.20;99.90
16955;DHT22;8594;52.052;8.354;2023-05-07T05:30:04;13.10;99.90
16955;DHT22;8594;52.052;8.354;2023-05-07T05:32:32;13.10;99.90
16955;DHT22;8594;52.052;8.354;2023-05-07T05:34:59;13.10;99.90
16955;DHT22;8594;52.052;8.354;2023-05-07T05:37:25;13.10;99.90
16955;DHT22;8594;52.052;8.354;2023-05-07T05:39:53;13.00;99.90
16955;DHT22;8594;52.052;8.354;2023-05-07T05:42:22;13.00;99.90
16955;DHT22;8594;52.052;8.354;2023-05-07T05:44:50;13.00;99.90
16955;DHT22;8594;52.052;8.354;2023-05-07T05:47:17;13.20;99.90
16955;DHT22;8594;52.052;8.354;2023-05-07T05:49:43;13.30;99.90
16955;DHT22;8594;52.052;8.354;2023-05-07T05:52:12;13.30;99.90
16955;DHT22;8594;52.052;8.354;2023-05-07T05:54:39;13.30;99.90
16955;DHT22;8594;52.052;8.354;2023-05-07T05:57:06;13.20;99.90
16955;DHT22;8594;52.052;8.354;2023-05-07T05:59:37;13.20;99.90
16955;DHT22;8594;52.052;8.354;2023-05-07T06:02:04;13.30;99.90
16955;DHT22;8594;52.052;8.354;2023-05-07T06:04:31;13.40;99.90
16955;DHT22;8594;52.052;8.354;2023-05-07T06:06:58;13.50;99.90
16955;DHT22;8594;52.052;8.354;2023-05-07T06:09:25;13.60;99.90
16955;DHT22;8594;52.052;8.354;2023-05-07T06:11:52;13.70;99.90
16955;DHT22;8594;52.052;8.354;2023-05-07T06:14:19;13.60;99.90
16955;DHT22;8594;52.052;8.354;2023-05-07T06:16:47;13.70;99.90
16955;DHT22;8594;52.052;8.354;2023-05-07T06:19:13;13.90;99.90
16955;DHT22;8594;52.052;8.354;2023-05-07T06:21:43;14.00;99.90
16955;DHT22;8594;52.052;8.354;2023-05-07T06:24:10;14.20;99.90
16955;DHT22;8594;52.052;8.354;2023-05-07T06:26:36;14.10;99.90
16955;DHT22;8594;52.052;8.354;2023-05-07T06:29:03;14.20;99.90
16955;DHT22;8594;52.052;8.354;2023-05-07T06:31:30;14.30;99.90
16955;DHT22;8594;52.052;8.354;2023-05-07T06:33:59;14.30;99.90
16955;DHT22;8594;52.052;8.354;2023-05-07T06:36:27;14.30;99.90
16955;DHT22;8594;52.052;8.354;2023-05-07T06:38:54;14.30;99.90
16955;DHT22;8594;52.052;8.354;2023-05-07T06:41:21;14.20;99.90
16955;DHT22;8594;52.052;8.354;2023-05-07T06:43:48;14.40;99.90
16955;DHT22;8594;52.052;8.354;2023-05-07T06:46:15;14.20;99.90
16955;DHT22;8594;52.052;8.354;2023-05-07T06:48:42;14.20;99.90
16955;DHT22;8594;52.052;8.354;2023-05-07T06:51:10;14.20;99.90
16955;DHT22;8594;52.052;8.354;2023-05-07T06:53:37;14.40;99.90
16955;DHT22;8594;52.052;8.354;2023-05-07T06:56:04;14.30;99.90
16955;DHT22;8594;52.052;8.354;2023-05-07T06:58:31;14.50;99.90
16955;DHT22;8594;52.052;8.354;2023-05-07T07:00:58;14.80;99.90
16955;DHT22;8594;52.052;8.354;2023-05-07T07:03:25;15.00;99.90
16955;DHT22;8594;52.052;8.354;2023-05-07T07:05:52;15.20;99.90
16955;DHT22;8594;52.052;8.354;2023-05-07T07:08:22;15.20;99.90
16955;DHT22;8594;52.052;8.354;2023-05-07T07:10:49;15.40;99.90
16955;DHT22;8594;52.052;8.354;2023-05-07T07:13:15;15.50;99.90
16955;DHT22;8594;52.052;8.354;2023-05-07T07:15:43;15.50;99.90
16955;DHT22;8594;52.052;8.354;2023-05-07T07:18:10;15.60;99.90
16955;DHT22;8594;52.052;8.354;2023-05-07T07:20:37;15.50;99.90
16955;DHT22;8594;52.052;8.354;2023-05-07T07:23:03;15.70;99.90
16955;DHT22;8594;52.052;8.354;2023-05-07T07:25:32;15.50;99.90
16955;DHT22;8594;52.052;8.354;2023-05-07T07:27:59;15.50;99.90
16955;DHT22;8594;52.052;8.354;2023-05-07T07:30:25;15.40;99.90
16955;DHT22;8594;52.052;8.354;2023-05-07T07:32:52;15.20;99.90
16955;DHT22;8594;52.052;8.354;2023-05-07T07:35:19;15.10;99.90
16955;DHT22;8594;52.052;8.354;2023-05-07T07:37:47;15.00;99.90
16955;DHT22;8594;52.052;8.354;2023-05-07T07:40:15;14.90;99.90
16955;DHT22;8594;52.052;8.354;2023-05-07T07:42:44;14.80;99.90
16955;DHT22;8594;52.052;8.354;2023-05-07T07:45:11;14.90;99.90
16955;DHT22;8594;52.052;8.354;2023-05-07T07:47:38;15.00;99.90
16955;DHT22;8594;52.052;8.354;2023-05-07T07:50:06;15.20;99.90
16955;DHT22;8594;52.052;8.354;2023-05-07T07:52:34;15.30;99.90
16955;DHT22;8594;52.052;8.354;2023-05-07T07:55:01;15.40;99.90
16955;DHT22;8594;52.052;8.354;2023-05-07T07:57:28;15.50;99.90
16955;DHT22;8594;52.052;8.354;2023-05-07T07:59:56;15.60;99.90
16955;DHT22;8594;52.052;8.354;2023-05-07T08:02:23;15.70;99.90
16955;DHT22;8594;52.052;8.354;2023-05-07T08:04:50;15.70;99.90
16955;DHT22;8594;52.052;8.354;2023-05-07T08:07:17;15.60;99.90
16955;DHT22;8594;52.052;8.354;2023-05-07T08:09:46;15.80;99.90
16955;DHT22;8594;52.052;8.354;2023-05-07T08:12:13;15.70;99.90
16955;DHT22;8594;52.052;8.354;2023-05-07T08:14:40;15.80;99.90
16955;DHT22;8594;52.052;8.354;2023-05-07T08:17:08;15.80;99.90
16955;DHT22;8594;52.052;8.354;2023-05-07T08:19:36;15.80;99.90
16955;DHT22;8594;52.052;8.354;2023-05-07T08:22:03;15.70;99.90
16955;DHT22;8594;52.052;8.354;2023-05-07T08:24:31;15.70;99.90
16955;DHT22;8594;52.052;8.354;2023-05-07T08:26:57;15.50;99.90
16955;DHT22;8594;52.052;8.354;2023-05-07T08:29:24;15.60;99.90
16955;DHT22;8594;52.052;8.354;2023-05-07T08:31:51;15.80;99.90
16955;DHT22;8594;52.052;8.354;2023-05-07T08:34:19;15.70;99.90
16955;DHT22;8594;52.052;8.354;2023-05-07T08:36:47;15.90;99.90
16955;DHT22;8594;52.052;8.354;2023-05-07T08:39:15;16.00;99.90
16955;DHT22;8594;52.052;8.354;2023-05-07T08:41:44;15.90;99.90
16955;DHT22;8594;52.052;8.354;2023-05-07T08:44:13;15.90;99.90
16955;DHT22;8594;52.052;8.354;2023-05-07T08:46:41;16.00;99.90
16955;DHT22;8594;52.052;8.354;2023-05-07T08:49:08;16.00;99.90
16955;DHT22;8594;52.052;8.354;2023-05-07T08:51:37;16.00;99.90
16955;DHT22;8594;52.052;8.354;2023-05-07T08:54:04;15.90;99.90
16955;DHT22;8594;52.052;8.354;2023-05-07T08:56:32;15.90;99.90
16955;DHT22;8594;52.052;8.354;2023-05-07T08:58:59;16.20;99.90
16955;DHT22;8594;52.052;8.354;2023-05-07T09:01:26;16.30;99.90
16955;DHT22;8594;52.052;8.354;2023-05-07T09:03:53;16.30;99.90
16955;DHT22;8594;52.052;8.354;2023-05-07T09:06:21;16.40;99.90
16955;DHT22;8594;52.052;8.354;2023-05-07T09:08:53;16.60;99.90
16955;DHT22;8594;52.052;8.354;2023-05-07T09:11:21;16.80;99.90
16955;DHT22;8594;52.052;8.354;2023-05-07T09:13:49;16.80;99.90
16955;DHT22;8594;52.052;8.354;2023-05-07T09:16:21;16.70;99.90
16955;DHT22;8594;52.052;8.354;2023-05-07T09:18:50;16.50;99.90
16955;DHT22;8594;52.052;8.354;2023-05-07T09:21:19;16.70;99.90
16955;DHT22;8594;52.052;8.354;2023-05-07T09:23:49;16.70;99.90
16955;DHT22;8594;52.052;8.354;2023-05-07T09:26:19;16.70;99.90
16955;DHT22;8594;52.052;8.354;2023-05-07T09:28:48;17.00;99.90
16955;DHT22;8594;52.052;8.354;2023-05-07T09:31:14;17.10;99.90
16955;DHT22;8594;52.052;8.354;2023-05-07T09:33:41;17.20;99.90
16955;DHT22;8594;52.052;8.354;2023-05-07T09:36:09;17.30;99.90
16955;DHT22;8594;52.052;8.354;2023-05-07T09:38:37;17.40;99.90
16955;DHT22;8594;52.052;8.354;2023-05-07T09:41:07;17.50;99.90
16955;DHT22;8594;52.052;8.354;2023-05-07T09:43:35;17.60;99.90
16955;DHT22;8594;52.052;8.354;2023-05-07T09:46:07;17.90;99.90
16955;DHT22;8594;52.052;8.354;2023-05-07T09:48:38;18.40;99.90
16955;DHT22;8594;52.052;8.354;2023-05-07T09:51:13;18.50;99.90
16955;DHT22;8594;52.052;8.354;2023-05-07T09:53:45;18.70;99.90
16955;DHT22;8594;52.052;8.354;2023-05-07T09:56:14;18.80;99.90
16955;DHT22;8594;52.052;8.354;2023-05-07T09:58:43;18.90;99.90
16955;DHT22;8594;52.052;8.354;2023-05-07T10:01:12;18.90;99.90
16955;DHT22;8594;52.052;8.354;2023-05-07T10:03:40;18.60;99.90
16955;DHT22;8594;52.052;8.354;2023-05-07T10:06:09;18.80;99.90
16955;DHT22;8594;52.052;8.354;2023-05-07T10:08:37;18.90;99.90
16955;DHT22;8594;52.052;8.354;2023-05-07T10:11:04;19.10;99.90
16955;DHT22;8594;52.052;8.354;2023-05-07T10:13:33;19.00;99.90
16955;DHT22;8594;52.052;8.354;2023-05-07T10:16:03;19.10;99.90
16955;DHT22;8594;52.052;8.354;2023-05-07T10:18:31;19.30;99.90
16955;DHT22;8594;52.052;8.354;2023-05-07T10:21:04;19.30;99.90
16955;DHT22;8594;52.052;8.354;2023-05-07T10:23:34;19.10;99.90
16955;DHT22;8594;52.052;8.354;2023-05-07T10:26:04;19.10;99.90
16955;DHT22;8594;52.052;8.354;2023-05-07T10:28:39;19.00;99.90
16955;DHT22;8594;52.052;8.354;2023-05-07T10:31:18;19.30;99.90
16955;DHT22;8594;52.052;8.354;2023-05-07T10:33:59;19.40;99.90
16955;DHT22;8594;52.052;8.354;2023-05-07T10:36:29;19.40;99.90
16955;DHT22;8594;52.052;8.354;2023-05-07T10:38:56;19.30;99.90
16955;DHT22;8594;52.052;8.354;2023-05-07T10:41:23;19.80;99.90
16955;DHT22;8594;52.052;8.354;2023-05-07T10:43:51;19.80;99.90
16955;DHT22;8594;52.052;8.354;2023-05-07T10:46:19;19.90;99.90
16955;DHT22;8594;52.052;8.354;2023-05-07T10:49:08;20.30;99.90
16955;DHT22;8594;52.052;8.354;2023-05-07T10:51:38;20.20;99.90
16955;DHT22;8594;52.052;8.354;2023-05-07T10:54:21;20.10;99.90
16955;DHT22;8594;52.052;8.354;2023-05-07T10:56:50;19.70;99.90
16955;DHT22;8594;52.052;8.354;2023-05-07T10:59:37;19.90;99.90
16955;DHT22;8594;52.052;8.354;2023-05-07T11:02:08;19.80;99.90
16955;DHT22;8594;52.052;8.354;2023-05-07T11:04:38;19.70;99.90
16955;DHT22;8594;52.052;8.354;2023-05-07T11:07:23;19.80;99.90
16955;DHT22;8594;52.052;8.354;2023-05-07T11:09:59;20.20;99.90
16955;DHT22;8594;52.052;8.354;2023-05-07T11:12:50;20.30;99.90
16955;DHT22;8594;52.052;8.354;2023-05-07T11:15:40;20.10;99.90
16955;DHT22;8594;52.052;8.354;2023-05-07T11:18:09;20.40;99.90
16955;DHT22;8594;52.052;8.354;2023-05-07T11:21:00;20.40;99.90
16955;DHT22;8594;52.052;8.354;2023-05-07T11:23:54;20.40;99.90
16955;DHT22;8594;52.052;8.354;2023-05-07T11:26:23;20.30;99.90
16955;DHT22;8594;52.052;8.354;2023-05-07T11:28:51;20.00;99.90
16955;DHT22;8594;52.052;8.354;2023-05-07T11:31:23;20.00;99.90
16955;DHT22;8594;52.052;8.354;2023-05-07T11:33:52;20.20;99.90
16955;DHT22;8594;52.052;8.354;2023-05-07T11:36:21;20.20;99.90
16955;DHT22;8594;52.052;8.354;2023-05-07T11:38:50;20.00;99.90
16955;DHT22;8594;52.052;8.354;2023-05-07T11:41:17;20.30;99.90
16955;DHT22;8594;52.052;8.354;2023-05-07T11:43:56;20.50;99.90
16955;DHT22;8594;52.052;8.354;2023-05-07T11:46:27;20.40;99.90
16955;DHT22;8594;52.052;8.354;2023-05-07T11:48:55;20.30;99.90
16955;DHT22;8594;52.052;8.354;2023-05-07T11:51:23;20.10;99.90
16955;DHT22;8594;52.052;8.354;2023-05-07T11:53:52;20.30;99.90
16955;DHT22;8594;52.052;8.354;2023-05-07T11:56:20;20.30;99.90
16955;DHT22;8594;52.052;8.354;2023-05-07T11:58:47;20.30;99.90
16955;DHT22;8594;52.052;8.354;2023-05-07T12:01:16;20.50;99.90
16955;DHT22;8594;52.052;8.354;2023-05-07T12:03:45;20.70;99.90
16955;DHT22;8594;52.052;8.354;2023-05-07T12:06:14;20.80;99.90
16955;DHT22;8594;52.052;8.354;2023-05-07T12:08:42;20.50;99.90
16955;DHT22;8594;52.052;8.354;2023-05-07T12:11:13;20.00;99.90
16955;DHT22;8594;52.052;8.354;2023-05-07T12:13:43;19.90;99.90
16955;DHT22;8594;52.052;8.354;2023-05-07T12:16:10;20.10;99.90
16955;DHT22;8594;52.052;8.354;2023-05-07T12:18:37;20.10;99.90
16955;DHT22;8594;52.052;8.354;2023-05-07T12:21:08;20.10;99.90
16955;DHT22;8594;52.052;8.354;2023-05-07T12:23:45;20.00;99.90
16955;DHT22;8594;52.052;8.354;2023-05-07T12:26:13;19.80;99.90
16955;DHT22;8594;52.052;8.354;2023-05-07T12:28:47;19.60;99.90
16955;DHT22;8594;52.052;8.354;2023-05-07T12:31:16;19.80;99.90
16955;DHT22;8594;52.052;8.354;2023-05-07T12:33:43;20.20;99.90
16955;DHT22;8594;52.052;8.354;2023-05-07T12:36:12;20.40;99.90
16955;DHT22;8594;52.052;8.354;2023-05-07T12:38:40;20.40;99.90
16955;DHT22;8594;52.052;8.354;2023-05-07T12:41:09;20.40;99.90
16955;DHT22;8594;52.052;8.354;2023-05-07T12:43:37;20.00;99.90
16955;DHT22;8594;52.052;8.354;2023-05-07T12:46:06;20.20;99.90
16955;DHT22;8594;52.052;8.354;2023-05-07T12:48:35;20.20;99.90
16955;DHT22;8594;52.052;8.354;2023-05-07T12:51:03;20.40;99.90
16955;DHT22;8594;52.052;8.354;2023-05-07T12:53:33;20.10;99.90
16955;DHT22;8594;52.052;8.354;2023-05-07T12:56:02;19.90;99.90
16955;DHT22;8594;52.052;8.354;2023-05-07T12:58:33;19.80;99.90
16955;DHT22;8594;52.052;8.354;2023-05-07T13:01:04;20.10;99.90
16955;DHT22;8594;52.052;8.354;2023-05-07T13:03:34;20.20;99.90
16955;DHT22;8594;52.052;8.354;2023-05-07T13:06:04;20.10;99.90
16955;DHT22;8594;52.052;8.354;2023-05-07T13:08:38;20.00;99.90
16955;DHT22;8594;52.052;8.354;2023-05-07T13:11:09;19.90;99.90
16955;DHT22;8594;52.052;8.354;2023-05-07T13:13:38;19.90;99.90
16955;DHT22;8594;52.052;8.354;2023-05-07T13:16:07;19.80;99.90
16955;DHT22;8594;52.052;8.354;2023-05-07T13:18:35;20.00;99.90
16955;DHT22;8594;52.052;8.354;2023-05-07T13:21:03;19.90;99.90
16955;DHT22;8594;52.052;8.354;2023-05-07T13:23:30;20.00;99.90
16955;DHT22;8594;52.052;8.354;2023-05-07T13:25:58;20.20;99.90
16955;DHT22;8594;52.052;8.354;2023-05-07T13:28:25;20.30;99.90
16955;DHT22;8594;52.052;8.354;2023-05-07T13:30:52;20.10;99.90
16955;DHT22;8594;52.052;8.354;2023-05-07T13:33:19;20.00;99.90
16955;DHT22;8594;52.052;8.354;2023-05-07T13:35:46;19.90;99.90
16955;DHT22;8594;52.052;8.354;2023-05-07T13:38:13;19.80;99.90
16955;DHT22;8594;52.052;8.354;2023-05-07T13:40:41;19.80;99.90
16955;DHT22;8594;52.052;8.354;2023-05-07T13:43:09;19.90;99.90
16955;DHT22;8594;52.052;8.354;2023-05-07T13:45:36;20.00;99.90
16955;DHT22;8594;52.052;8.354;2023-05-07T13:48:03;19.90;99.90
16955;DHT22;8594;52.052;8.354;2023-05-07T13:50:30;19.50;99.90
16955;DHT22;8594;52.052;8.354;2023-05-07T13:52:57;19.50;99.90
16955;DHT22;8594;52.052;8.354;2023-05-07T13:55:24;19.40;99.90
16955;DHT22;8594;52.052;8.354;2023-05-07T13:57:55;19.30;99.90
16955;DHT22;8594;52.052;8.354;2023-05-07T14:00:24;19.30;99.90
16955;DHT22;8594;52.052;8.354;2023-05-07T14:02:52;19.40;99.90
16955;DHT22;8594;52.052;8.354;2023-05-07T14:05:19;19.30;99.90
16955;DHT22;8594;52.052;8.354;2023-05-07T14:07:48;19.10;99.90
16955;DHT22;8594;52.052;8.354;2023-05-07T14:10:17;19.30;99.90
16955;DHT22;8594;52.052;8.354;2023-05-07T14:12:45;19.30;99.90
16955;DHT22;8594;52.052;8.354;2023-05-07T14:15:12;19.40;99.90
16955;DHT22;8594;52.052;8.354;2023-05-07T14:17:40;19.20;99.90
16955;DHT22;8594;52.052;8.354;2023-05-07T14:20:08;19.20;99.90
16955;DHT22;8594;52.052;8.354;2023-05-07T14:22:36;19.20;99.90
16955;DHT22;8594;52.052;8.354;2023-05-07T14:25:04;19.30;99.90
16955;DHT22;8594;52.052;8.354;2023-05-07T14:27:31;19.20;99.90
16955;DHT22;8594;52.052;8.354;2023-05-07T14:29:58;19.20;99.90
16955;DHT22;8594;52.052;8.354;2023-05-07T14:32:25;19.20;99.90
16955;DHT22;8594;52.052;8.354;2023-05-07T14:34:53;19.40;99.90
16955;DHT22;8594;52.052;8.354;2023-05-07T14:37:20;19.60;99.90
16955;DHT22;8594;52.052;8.354;2023-05-07T14:39:48;19.50;99.90
16955;DHT22;8594;52.052;8.354;2023-05-07T14:42:14;19.60;99.90
16955;DHT22;8594;52.052;8.354;2023-05-07T14:44:41;19.40;99.90
16955;DHT22;8594;52.052;8.354;2023-05-07T14:47:10;19.10;99.90
16955;DHT22;8594;52.052;8.354;2023-05-07T14:49:36;19.00;99.90
16955;DHT22;8594;52.052;8.354;2023-05-07T14:52:05;18.90;99.90
16955;DHT22;8594;52.052;8.354;2023-05-07T14:54:33;19.00;99.90
16955;DHT22;8594;52.052;8.354;2023-05-07T14:57:00;19.20;99.90
16955;DHT22;8594;52.052;8.354;2023-05-07T14:59:27;19.10;99.90
16955;DHT22;8594;52.052;8.354;2023-05-07T15:01:54;18.80;99.90
16955;DHT22;8594;52.052;8.354;2023-05-07T15:04:21;18.90;99.90
16955;DHT22;8594;52.052;8.354;2023-05-07T15:06:48;19.00;99.90
16955;DHT22;8594;52.052;8.354;2023-05-07T15:09:16;19.00;99.90
16955;DHT22;8594;52.052;8.354;2023-05-07T15:11:43;19.00;99.90
16955;DHT22;8594;52.052;8.354;2023-05-07T15:14:10;19.00;99.90
16955;DHT22;8594;52.052;8.354;2023-05-07T15:16:36;19.00;99.90
16955;DHT22;8594;52.052;8.354;2023-05-07T15:19:03;18.80;99.90
16955;DHT22;8594;52.052;8.354;2023-05-07T15:21:30;18.90;99.90
16955;DHT22;8594;52.052;8.354;2023-05-07T15:23:59;18.90;99.90
16955;DHT22;8594;52.052;8.354;2023-05-07T15:26:28;19.00;99.90
16955;DHT22;8594;52.052;8.354;2023-05-07T15:28:55;19.00;99.90
16955;DHT22;8594;52.052;8.354;2023-05-07T15:31:22;18.90;99.90
16955;DHT22;8594;52.052;8.354;2023-05-07T15:33:49;18.80;99.90
16955;DHT22;8594;52.052;8.354;2023-05-07T15:36:17;18.80;99.90
16955;DHT22;8594;52.052;8.354;2023-05-07T15:38:44;18.80;99.90
16955;DHT22;8594;52.052;8.354;2023-05-07T15:41:10;18.60;99.90
16955;DHT22;8594;52.052;8.354;2023-05-07T15:43:45;18.50;99.90
16955;DHT22;8594;52.052;8.354;2023-05-07T15:46:17;18.50;99.90
16955;DHT22;8594;52.052;8.354;2023-05-07T15:48:45;18.60;99.90
16955;DHT22;8594;52.052;8.354;2023-05-07T15:51:13;18.50;99.90